createdAt,value
2023-06-29T00:01:57.098Z,30.15
2023-06-29T00:04:27.522Z,30.14
2023-06-29T00:06:58.022Z,30.02
2023-06-29T00:09:31.346Z,30.06
2023-06-29T00:12:09.504Z,30.10
2023-06-29T00:14:39.760Z,30.00
2023-06-29T00:17:07.144Z,30.01
2023-06-29T00:19:34.941Z,29.92
2023-06-29T00:22:05.320Z,29.88
2023-06-29T00:24:35.921Z,29.82
2023-06-29T00:27:08.617Z,29.95
2023-06-29T00:29:37.987Z,29.92
2023-06-29T00:32:06.779Z,29.89
2023-06-29T00:34:36.438Z,29.95
2023-06-29T00:37:09.593Z,29.92
2023-06-29T00:39:36.678Z,29.95
2023-06-29T00:42:04.324Z,29.97
2023-06-29T00:44:36.929Z,29.99
2023-06-29T00:47:05.496Z,30.04
2023-06-29T00:49:36.436Z,30.04
2023-06-29T00:52:13.713Z,29.97
2023-06-29T00:54:41.132Z,29.99
2023-06-29T00:57:11.855Z,29.90
2023-06-29T00:59:39.158Z,29.95
2023-06-29T01:02:06.506Z,29.96
2023-06-29T01:04:37.392Z,30.09
2023-06-29T01:07:19.390Z,29.99
2023-06-29T01:09:49.616Z,30.01
2023-06-29T01:12:20.155Z,29.98
2023-06-29T01:14:49.748Z,29.97
2023-06-29T01:17:21.601Z,29.85
2023-06-29T01:19:51.122Z,29.89
2023-06-29T01:22:29.090Z,29.95
2023-06-29T01:24:58.945Z,29.97
2023-06-29T01:27:26.739Z,29.97
2023-06-29T01:29:57.105Z,29.87
2023-06-29T01:32:35.491Z,29.87
2023-06-29T01:35:06.053Z,29.77
2023-06-29T01:38:09.357Z,29.62
2023-06-29T01:40:38.889Z,29.68
2023-06-29T01:43:08.662Z,29.84
2023-06-29T01:45:39.487Z,29.92
2023-06-29T01:48:08.492Z,29.83
2023-06-29T01:50:36.868Z,29.82
2023-06-29T01:53:05.066Z,29.82
2023-06-29T01:55:32.391Z,29.85
2023-06-29T01:57:59.672Z,29.88
2023-06-29T02:03:36.528Z,29.84
2023-06-29T02:06:03.928Z,29.90
2023-06-29T02:08:31.139Z,29.94
2023-06-29T02:11:00.884Z,29.86
2023-06-29T02:13:28.175Z,29.82
2023-06-29T02:15:55.947Z,29.77
2023-06-29T02:18:23.316Z,29.75
2023-06-29T02:20:50.625Z,29.85
2023-06-29T02:23:18.012Z,29.89
2023-06-29T02:25:45.662Z,29.88
2023-06-29T02:28:13.117Z,29.88
2023-06-29T02:30:40.594Z,29.88
2023-06-29T02:33:08.346Z,29.79
2023-06-29T02:35:38.402Z,29.87
2023-06-29T02:38:05.735Z,29.78
2023-06-29T02:40:33.689Z,29.76
2023-06-29T02:43:01.112Z,29.79
2023-06-29T02:45:29.975Z,29.78
2023-06-29T02:47:57.553Z,29.75
2023-06-29T02:50:24.953Z,29.70
2023-06-29T02:52:52.520Z,29.60
2023-06-29T02:55:23.771Z,29.72
2023-06-29T02:57:54.606Z,29.65
2023-06-29T03:03:30.995Z,29.50
2023-06-29T03:05:58.353Z,29.57
2023-06-29T03:08:29.003Z,29.58
2023-06-29T03:10:59.092Z,29.56
2023-06-29T03:13:26.182Z,29.59
2023-06-29T03:15:53.258Z,29.63
2023-06-29T03:18:20.566Z,29.60
2023-06-29T03:20:48.264Z,29.58
2023-06-29T03:23:15.546Z,29.62
2023-06-29T03:25:43.271Z,29.62
2023-06-29T03:28:10.759Z,29.64
2023-06-29T03:30:37.966Z,29.63
2023-06-29T03:33:05.675Z,29.65
2023-06-29T03:35:32.800Z,29.64
2023-06-29T03:37:59.929Z,29.53
2023-06-29T03:40:27.079Z,29.54
2023-06-29T03:42:54.531Z,29.52
2023-06-29T03:45:24.558Z,29.49
2023-06-29T03:47:54.432Z,29.49
2023-06-29T03:50:22.868Z,29.45
2023-06-29T03:52:49.884Z,29.39
2023-06-29T03:55:18.601Z,29.45
2023-06-29T03:57:46.016Z,29.41
2023-06-29T04:00:14.129Z,29.40
2023-06-29T04:02:41.760Z,29.43
2023-06-29T04:05:09.682Z,29.36
2023-06-29T04:07:37.069Z,29.32
2023-06-29T04:10:04.678Z,29.29
2023-06-29T04:12:31.848Z,29.25
2023-06-29T04:14:59.154Z,29.26
2023-06-29T04:17:26.347Z,29.17
2023-06-29T04:19:53.683Z,29.28
2023-06-29T04:22:20.916Z,29.31
2023-06-29T04:24:48.543Z,29.28
2023-06-29T04:27:15.651Z,29.17
2023-06-29T04:29:42.874Z,29.23
2023-06-29T04:32:10.168Z,29.23
2023-06-29T04:34:37.298Z,29.29
2023-06-29T04:37:05.947Z,29.33
2023-06-29T04:39:33.442Z,29.39
2023-06-29T04:42:04.384Z,29.37
2023-06-29T04:44:34.797Z,29.37
2023-06-29T04:47:03.313Z,29.40
2023-06-29T04:49:38.247Z,29.43
2023-06-29T04:52:06.820Z,29.38
2023-06-29T04:54:34.039Z,29.30
2023-06-29T04:57:01.267Z,29.42
2023-06-29T04:59:29.723Z,29.43
2023-06-29T05:01:56.881Z,29.39
2023-06-29T05:04:24.064Z,29.27
2023-06-29T05:06:51.135Z,29.43
2023-06-29T05:09:18.285Z,29.46
2023-06-29T05:11:45.704Z,29.54
2023-06-29T05:14:12.852Z,29.53
2023-06-29T05:16:40.023Z,29.56
2023-06-29T05:19:07.135Z,29.52
2023-06-29T05:21:34.222Z,29.56
2023-06-29T05:24:01.242Z,29.54
2023-06-29T05:26:28.431Z,29.49
2023-06-29T05:29:05.136Z,29.49
2023-06-29T05:31:33.487Z,29.63
2023-06-29T05:34:00.784Z,29.55
2023-06-29T05:36:28.101Z,29.65
2023-06-29T05:38:57.218Z,29.57
2023-06-29T05:41:24.421Z,29.57
2023-06-29T05:43:51.576Z,29.64
2023-06-29T05:46:18.926Z,29.54
2023-06-29T05:48:46.075Z,29.66
2023-06-29T05:51:13.143Z,29.76
2023-06-29T05:53:40.314Z,29.75
2023-06-29T05:56:07.524Z,29.69
2023-06-29T05:58:34.752Z,29.71
2023-06-29T06:01:05.053Z,29.72
2023-06-29T06:03:34.574Z,29.69
2023-06-29T06:06:03.320Z,29.74
2023-06-29T06:08:30.449Z,29.85
2023-06-29T06:10:57.461Z,29.87
2023-06-29T06:13:24.536Z,29.83
2023-06-29T06:15:51.673Z,29.93
2023-06-29T06:18:18.772Z,29.96
2023-06-29T06:20:46.091Z,29.86
2023-06-29T06:23:13.372Z,29.86
2023-06-29T06:25:40.584Z,29.98
2023-06-29T06:28:07.810Z,29.91
2023-06-29T06:30:34.847Z,30.03
2023-06-29T06:33:02.745Z,30.02
2023-06-29T06:35:30.246Z,29.98
2023-06-29T06:37:57.328Z,30.14
2023-06-29T06:40:24.488Z,30.14
2023-06-29T06:42:51.539Z,30.23
2023-06-29T06:45:18.655Z,30.17
2023-06-29T06:47:45.926Z,30.23
2023-06-29T06:50:13.117Z,30.27
2023-06-29T06:52:40.302Z,30.40
2023-06-29T06:55:08.196Z,30.42
2023-06-29T06:57:35.454Z,30.39
2023-06-29T07:00:02.489Z,30.44
2023-06-29T07:02:29.793Z,30.34
2023-06-29T07:05:01.834Z,30.44
2023-06-29T07:07:29.118Z,30.39
2023-06-29T07:09:56.465Z,30.49
2023-06-29T07:12:23.786Z,30.42
2023-06-29T07:14:50.844Z,30.65
2023-06-29T07:17:19.459Z,30.56
2023-06-29T07:24:46.707Z,30.89
2023-06-29T07:27:13.757Z,31.05
2023-06-29T07:29:44.013Z,31.07
2023-06-29T07:32:11.657Z,31.13
2023-06-29T07:34:39.009Z,31.12
2023-06-29T07:37:06.845Z,31.25
2023-06-29T07:39:36.268Z,31.36
2023-06-29T07:42:03.582Z,31.48
2023-06-29T07:44:30.808Z,31.27
2023-06-29T07:46:58.246Z,31.56
2023-06-29T07:49:25.311Z,31.69
2023-06-29T07:51:52.450Z,31.70
2023-06-29T07:54:22.049Z,31.47
2023-06-29T07:59:19.575Z,31.75
2023-06-29T08:01:51.746Z,31.75
2023-06-29T08:06:52.271Z,31.95
2023-06-29T08:09:19.612Z,32.11
2023-06-29T08:11:47.028Z,32.20
2023-06-29T08:14:14.209Z,32.07
2023-06-29T08:16:41.379Z,31.81
2023-06-29T08:19:08.669Z,31.87
2023-06-29T08:21:35.843Z,31.99
2023-06-29T08:24:02.973Z,31.94
2023-06-29T08:26:30.271Z,31.86
2023-06-29T08:28:57.336Z,32.05
2023-06-29T08:31:24.673Z,31.66
2023-06-29T08:33:51.887Z,31.54
2023-06-29T08:36:22.029Z,31.75
2023-06-29T08:38:50.310Z,31.33
2023-06-29T08:41:17.747Z,31.36
2023-06-29T08:43:45.310Z,31.32
2023-06-29T08:46:12.629Z,31.57
2023-06-29T08:48:44.234Z,31.72
2023-06-29T08:51:15.167Z,31.17
2023-06-29T08:53:44.160Z,31.41
2023-06-29T08:56:12.448Z,31.14
2023-06-29T08:58:41.028Z,31.65
2023-06-29T09:01:08.706Z,31.91
2023-06-29T09:03:37.932Z,31.71
2023-06-29T09:06:05.290Z,32.01
2023-06-29T09:08:35.622Z,32.04
2023-06-29T09:11:03.015Z,32.38
2023-06-29T09:13:30.070Z,32.35
2023-06-29T09:16:01.945Z,32.38
2023-06-29T09:18:30.049Z,32.13
2023-06-29T09:20:57.956Z,32.35
2023-06-29T09:23:31.882Z,31.37
2023-06-29T09:26:04.752Z,32.01
2023-06-29T09:28:37.885Z,31.84
2023-06-29T09:31:15.469Z,32.17
2023-06-29T09:33:43.733Z,31.86
2023-06-29T09:36:12.815Z,32.08
2023-06-29T09:38:41.220Z,32.26
2023-06-29T09:41:08.974Z,32.17
2023-06-29T09:43:36.759Z,32.02
2023-06-29T09:46:10.296Z,32.14
2023-06-29T09:51:22.054Z,32.56
2023-06-29T09:53:51.905Z,32.25
2023-06-29T09:56:20.727Z,32.89
2023-06-29T09:58:48.611Z,33.08
2023-06-29T10:01:17.528Z,33.26
2023-06-29T10:03:48.325Z,33.07
2023-06-29T10:06:21.158Z,33.09
2023-06-29T10:08:55.042Z,33.33
2023-06-29T10:11:24.249Z,32.80
2023-06-29T10:13:53.393Z,32.80
2023-06-29T10:16:23.988Z,33.18
2023-06-29T10:18:58.592Z,33.51
2023-06-29T10:21:25.936Z,33.50
2023-06-29T10:23:53.947Z,33.80
2023-06-29T10:26:22.239Z,33.60
2023-06-29T10:28:49.554Z,33.69
2023-06-29T10:31:20.636Z,33.40
2023-06-29T10:33:49.602Z,33.40
2023-06-29T10:36:19.912Z,33.26
2023-06-29T10:38:47.132Z,32.86
2023-06-29T10:41:29.874Z,33.39
2023-06-29T10:44:01.038Z,33.26
2023-06-29T10:46:47.376Z,33.38
2023-06-29T10:49:26.317Z,33.41
2023-06-29T10:51:55.866Z,32.91
2023-06-29T10:54:29.486Z,32.76
2023-06-29T10:56:57.926Z,32.81
2023-06-29T10:59:25.239Z,32.61
2023-06-29T11:01:52.626Z,32.97
2023-06-29T11:04:21.031Z,32.93
2023-06-29T11:06:48.226Z,33.18
2023-06-29T11:09:16.015Z,33.49
2023-06-29T11:11:48.647Z,33.18
2023-06-29T11:17:02.687Z,33.54
2023-06-29T11:19:32.818Z,33.03
2023-06-29T11:22:04.527Z,33.26
2023-06-29T11:24:31.701Z,33.23
2023-06-29T11:26:59.483Z,33.32
2023-06-29T11:29:29.414Z,33.29
2023-06-29T11:31:56.646Z,33.48
2023-06-29T11:34:26.611Z,33.58
2023-06-29T11:39:26.780Z,33.43
2023-06-29T11:41:57.887Z,33.67
2023-06-29T11:44:25.118Z,33.65
2023-06-29T11:47:05.493Z,33.43
2023-06-29T11:49:41.867Z,33.38
2023-06-29T11:52:10.281Z,32.98
2023-06-29T11:54:43.051Z,32.49
2023-06-29T11:57:10.496Z,32.17
2023-06-29T11:59:40.298Z,31.87
2023-06-29T12:02:10.842Z,32.23
2023-06-29T12:04:42.617Z,31.80
2023-06-29T12:07:11.732Z,31.75
2023-06-29T12:09:51.428Z,31.60
2023-06-29T12:12:22.345Z,31.85
2023-06-29T12:14:50.372Z,32.54
2023-06-29T12:20:09.524Z,32.90
2023-06-29T12:22:38.158Z,32.95
2023-06-29T12:25:06.147Z,33.15
2023-06-29T12:27:33.310Z,32.93
2023-06-29T12:30:06.571Z,33.32
2023-06-29T12:32:33.961Z,33.11
2023-06-29T12:35:01.521Z,32.42
2023-06-29T12:37:29.712Z,32.00
2023-06-29T12:39:56.850Z,31.93
2023-06-29T12:42:24.673Z,32.23
2023-06-29T12:44:55.054Z,32.24
2023-06-29T12:47:25.836Z,32.57
2023-06-29T12:49:56.340Z,32.96
2023-06-29T12:52:26.617Z,32.56
2023-06-29T12:54:57.016Z,32.89
2023-06-29T12:57:27.959Z,32.94
2023-06-29T13:00:00.036Z,33.21
2023-06-29T13:02:28.221Z,32.92
2023-06-29T13:04:58.464Z,33.23
2023-06-29T13:07:25.977Z,32.66
2023-06-29T13:09:55.833Z,32.80
2023-06-29T13:12:23.084Z,32.56
2023-06-29T13:14:51.815Z,32.13
2023-06-29T13:17:20.068Z,31.82
2023-06-29T13:19:54.286Z,31.93
2023-06-29T13:22:24.403Z,31.94
2023-06-29T13:24:51.824Z,32.06
2023-06-29T13:27:21.917Z,32.39
2023-06-29T13:29:49.105Z,32.78
2023-06-29T13:32:16.486Z,32.51
2023-06-29T13:34:43.882Z,32.57
2023-06-29T13:37:11.201Z,32.08
2023-06-29T13:39:39.782Z,32.18
2023-06-29T13:42:16.023Z,32.25
2023-06-29T13:44:44.384Z,31.89
2023-06-29T13:47:18.935Z,32.63
2023-06-29T13:49:47.019Z,32.91
2023-06-29T13:52:14.286Z,32.81
2023-06-29T13:54:44.936Z,32.71
2023-06-29T13:57:12.041Z,33.05
2023-06-29T13:59:39.410Z,32.73
2023-06-29T14:02:07.633Z,32.34
2023-06-29T14:04:34.924Z,32.49
2023-06-29T14:07:04.755Z,32.25
2023-06-29T14:09:32.563Z,32.05
2023-06-29T14:12:01.254Z,31.87
2023-06-29T14:14:28.407Z,31.41
2023-06-29T14:16:55.509Z,31.45
2023-06-29T14:19:22.880Z,31.87
2023-06-29T14:21:51.408Z,31.89
2023-06-29T14:24:18.552Z,31.65
2023-06-29T14:26:45.677Z,31.84
2023-06-29T14:29:14.148Z,31.54
2023-06-29T14:31:41.445Z,31.27
2023-06-29T14:34:13.495Z,31.48
2023-06-29T14:36:42.496Z,31.49
2023-06-29T14:39:11.650Z,31.82
2023-06-29T14:41:54.969Z,31.59
2023-06-29T14:44:22.659Z,31.45
2023-06-29T14:46:53.519Z,31.54
2023-06-29T14:49:21.923Z,31.42
2023-06-29T14:51:50.454Z,31.89
2023-06-29T14:54:23.350Z,31.70
2023-06-29T14:56:51.417Z,30.91
2023-06-29T14:59:19.205Z,31.92
2023-06-29T15:01:48.325Z,31.42
2023-06-29T15:04:17.494Z,31.77
2023-06-29T15:06:52.974Z,31.71
2023-06-29T15:09:20.713Z,31.68
2023-06-29T15:11:48.141Z,32.02
2023-06-29T15:14:18.823Z,31.82
2023-06-29T15:16:46.458Z,31.83
2023-06-29T15:19:14.225Z,31.80
2023-06-29T15:21:44.621Z,31.83
2023-06-29T15:24:14.764Z,31.18
2023-06-29T15:26:45.908Z,31.66
2023-06-29T15:29:12.953Z,31.67
2023-06-29T15:31:40.264Z,31.58
2023-06-29T15:34:08.996Z,30.87
2023-06-29T15:36:36.335Z,30.77
2023-06-29T15:39:04.042Z,30.65
2023-06-29T15:41:31.667Z,30.82
2023-06-29T15:44:02.701Z,30.86
2023-06-29T15:46:56.636Z,30.94
2023-06-29T15:49:24.151Z,31.01
2023-06-29T15:51:51.732Z,31.09
2023-06-29T15:54:19.121Z,31.01
2023-06-29T15:56:46.254Z,31.22
2023-06-29T15:59:13.363Z,31.68
2023-06-29T16:01:40.863Z,31.21
2023-06-29T16:04:09.389Z,31.06
2023-06-29T16:06:37.206Z,30.77
2023-06-29T16:09:04.457Z,31.11
2023-06-29T16:11:31.982Z,30.54
2023-06-29T16:13:59.356Z,30.77
2023-06-29T16:16:26.875Z,31.00
2023-06-29T16:18:54.348Z,30.84
2023-06-29T16:21:21.617Z,30.88
2023-06-29T16:23:52.042Z,30.77
2023-06-29T16:26:19.396Z,30.71
2023-06-29T16:28:46.662Z,30.70
2023-06-29T16:31:16.999Z,30.71
2023-06-29T16:33:44.666Z,30.70
2023-06-29T16:36:11.882Z,30.80
2023-06-29T16:38:39.082Z,30.96
2023-06-29T16:41:08.265Z,30.71
2023-06-29T16:43:35.419Z,30.59
2023-06-29T16:46:03.033Z,30.42
2023-06-29T16:48:30.338Z,30.48
2023-06-29T16:50:57.891Z,30.74
2023-06-29T16:53:28.092Z,30.58
2023-06-29T16:55:57.014Z,30.53
2023-06-29T16:58:27.729Z,30.60
2023-06-29T17:00:55.022Z,30.32
2023-06-29T17:03:25.126Z,30.25
2023-06-29T17:06:04.459Z,30.42
2023-06-29T17:08:34.559Z,30.35
2023-06-29T17:11:02.194Z,30.48
2023-06-29T17:13:29.431Z,30.42
2023-06-29T17:16:02.593Z,30.41
2023-06-29T17:18:36.054Z,30.76
2023-06-29T17:21:03.513Z,30.71
2023-06-29T17:23:30.997Z,30.50
2023-06-29T17:25:58.965Z,30.80
2023-06-29T17:28:26.295Z,31.01
2023-06-29T17:30:54.184Z,31.07
2023-06-29T17:33:22.328Z,31.21
2023-06-29T17:35:49.792Z,31.14
2023-06-29T17:38:16.911Z,31.05
2023-06-29T17:40:45.828Z,31.01
2023-06-29T17:43:13.042Z,31.10
2023-06-29T17:45:40.186Z,31.16
2023-06-29T17:48:10.077Z,31.00
2023-06-29T17:50:38.011Z,30.87
2023-06-29T17:53:06.041Z,30.87
2023-06-29T17:55:33.497Z,30.91
2023-06-29T17:58:00.888Z,30.90
2023-06-29T18:00:30.666Z,30.75
2023-06-29T18:03:00.358Z,30.95
2023-06-29T18:05:30.623Z,31.14
2023-06-29T18:07:58.113Z,30.96
2023-06-29T18:10:25.270Z,30.88
2023-06-29T18:12:52.714Z,30.88
2023-06-29T18:15:19.963Z,31.07
2023-06-29T18:17:47.111Z,31.13
2023-06-29T18:20:20.315Z,30.95
2023-06-29T18:22:47.456Z,30.87
2023-06-29T18:25:14.755Z,30.93
2023-06-29T18:27:42.059Z,30.95
2023-06-29T18:30:09.745Z,30.92
2023-06-29T18:32:38.374Z,30.94
2023-06-29T18:35:07.307Z,30.93
2023-06-29T18:37:42.404Z,31.07
2023-06-29T18:40:12.894Z,31.04
2023-06-29T18:42:40.029Z,31.01
2023-06-29T18:45:12.500Z,30.53
2023-06-29T18:47:39.975Z,30.88
2023-06-29T18:50:07.850Z,30.90
2023-06-29T18:52:37.744Z,30.74
2023-06-29T18:55:07.858Z,30.54
2023-06-29T18:57:43.029Z,30.69
2023-06-29T19:00:10.717Z,30.75
2023-06-29T19:02:43.486Z,30.73
2023-06-29T19:05:11.951Z,30.69
2023-06-29T19:07:39.217Z,30.87
2023-06-29T19:10:07.656Z,30.89
2023-06-29T19:12:34.713Z,30.98
2023-06-29T19:15:02.394Z,30.87
2023-06-29T19:17:32.787Z,30.92
2023-06-29T19:20:05.799Z,30.97
2023-06-29T19:22:33.053Z,30.93
2023-06-29T19:25:01.206Z,30.86
2023-06-29T19:27:28.580Z,30.91
2023-06-29T19:29:55.805Z,30.96
2023-06-29T19:32:22.978Z,30.82
2023-06-29T19:34:51.775Z,30.92
2023-06-29T19:37:19.004Z,30.92
2023-06-29T19:39:46.067Z,30.84
2023-06-29T19:42:13.269Z,30.85
2023-06-29T19:44:40.432Z,30.81
2023-06-29T19:47:07.682Z,30.68
2023-06-29T19:49:35.004Z,30.91
2023-06-29T19:52:02.471Z,30.67
2023-06-29T19:54:29.926Z,30.67
2023-06-29T19:56:57.353Z,30.78
2023-06-29T19:59:24.697Z,30.79
2023-06-29T20:01:52.108Z,30.56
2023-06-29T20:04:19.519Z,30.63
2023-06-29T20:06:47.371Z,30.79
2023-06-29T20:09:15.158Z,30.75
2023-06-29T20:11:49.456Z,30.71
2023-06-29T20:14:16.782Z,30.80
2023-06-29T20:16:48.259Z,30.82
2023-06-29T20:19:19.670Z,30.88
2023-06-29T20:21:47.746Z,30.88
2023-06-29T20:24:17.557Z,30.89
2023-06-29T20:26:46.384Z,30.87
2023-06-29T20:29:23.847Z,30.86
2023-06-29T20:31:51.564Z,30.79
2023-06-29T20:34:19.413Z,30.82
2023-06-29T20:36:51.343Z,30.78
2023-06-29T20:39:20.584Z,30.83
2023-06-29T20:42:01.055Z,30.77
2023-06-29T20:44:38.027Z,30.71
2023-06-29T20:47:06.678Z,30.73
2023-06-29T20:49:34.047Z,30.72
2023-06-29T20:52:01.533Z,30.61
2023-06-29T20:54:28.891Z,30.53
2023-06-29T20:56:56.130Z,30.05
2023-06-29T20:59:23.615Z,30.14
2023-06-29T21:01:51.251Z,30.17
2023-06-29T21:04:20.840Z,30.21
2023-06-29T21:06:48.670Z,29.91
2023-06-29T21:09:16.378Z,29.49
2023-06-29T21:11:43.906Z,29.00
2023-06-29T21:14:11.044Z,28.40
2023-06-29T21:16:40.357Z,28.01
2023-06-29T21:19:07.949Z,27.91
2023-06-29T21:21:35.352Z,27.96
2023-06-29T21:24:03.591Z,27.76
2023-06-29T21:26:31.826Z,27.65
2023-06-29T21:29:12.814Z,26.88
2023-06-29T21:31:56.046Z,26.88
2023-06-29T21:34:23.566Z,26.66
2023-06-29T21:36:50.920Z,26.51
2023-06-29T21:39:20.897Z,26.48
2023-06-29T21:41:48.406Z,26.69
2023-06-29T21:44:15.488Z,26.70
2023-06-29T21:46:42.956Z,26.86
2023-06-29T21:49:10.337Z,26.38
2023-06-29T21:51:37.777Z,26.54
2023-06-29T21:54:06.839Z,26.68
2023-06-29T21:56:34.024Z,26.72
2023-06-29T21:59:02.282Z,26.76
2023-06-29T22:01:30.042Z,26.98
2023-06-29T22:03:58.499Z,26.86
2023-06-29T22:06:29.440Z,26.86
2023-06-29T22:08:58.952Z,26.90
2023-06-29T22:11:29.148Z,26.56
2023-06-29T22:13:57.816Z,26.72
2023-06-29T22:16:25.365Z,26.67
2023-06-29T22:18:57.334Z,26.89
2023-06-29T22:21:25.805Z,26.98
2023-06-29T22:23:54.250Z,26.72
2023-06-29T22:26:22.333Z,26.71
2023-06-29T22:28:50.106Z,26.99
2023-06-29T22:31:18.863Z,27.16
2023-06-29T22:33:47.780Z,26.82
2023-06-29T22:36:15.531Z,27.19
2023-06-29T22:38:45.344Z,27.20
2023-06-29T22:41:12.775Z,27.07
2023-06-29T22:43:40.742Z,26.98
2023-06-29T22:46:08.026Z,26.91
2023-06-29T22:48:38.471Z,26.83
2023-06-29T22:51:06.186Z,26.74
2023-06-29T22:53:33.965Z,26.84
2023-06-29T22:56:01.295Z,26.61
2023-06-29T22:58:29.282Z,26.62
2023-06-29T23:00:56.743Z,26.74
2023-06-29T23:03:24.634Z,26.93
2023-06-29T23:05:52.595Z,27.00
2023-06-29T23:08:22.429Z,26.85
2023-06-29T23:10:50.535Z,26.96
2023-06-29T23:13:18.347Z,26.98
2023-06-29T23:15:46.586Z,27.04
2023-06-29T23:18:14.490Z,26.97
2023-06-29T23:20:45.998Z,27.04
2023-06-29T23:23:14.374Z,27.05
2023-06-29T23:25:43.573Z,26.95
2023-06-29T23:28:11.328Z,26.99
2023-06-29T23:30:39.008Z,27.04
2023-06-29T23:33:09.734Z,26.58
2023-06-29T23:35:40.052Z,26.74
2023-06-29T23:38:07.512Z,26.60
2023-06-29T23:40:42.165Z,26.32
2023-06-29T23:43:10.105Z,26.40
2023-06-29T23:45:37.819Z,26.09
2023-06-29T23:48:05.473Z,25.89
2023-06-29T23:50:32.650Z,25.30
2023-06-29T23:52:59.654Z,25.21
2023-06-29T23:55:29.190Z,25.35
2023-06-29T23:57:56.721Z,25.20
